Capewater — PBPQ — position and weather

sailwx.info

Track history (hours):
 
Tides and Currents Weather Stations Pressure Air Temp Water Temp Dewpoint Dewpoint Depression Visibility Wind Speed Wind Dir Waves Ship Positions

Capewater

Last reported at 2014-Jul-23 06:08 UTC. Time now 2014-Jul-23 07:27 UTC.
Position N 46°07' W 001°25'.

Length 100 m; draft 6.6 m.

Type: Tanker. MMSI: 246346000.

Date/timePositionNaut miles runAvg speedWind from/ knotsBaromVisibWave heightAir tempDewpointWater temp
2014-Jul-23 06:08N 46°07' W 001°25'813.2
2014-Jul-23 05:33N 46°07' W 001°36'1413.8
2014-Jul-23 04:34N 46°14' W 001°53'1414.5
2014-Jul-23 03:34N 46°23' W 002°09'1514.6
2014-Jul-23 02:34N 46°32' W 002°26'3314.7
2014-Jul-23 00:17N 46°53' W 003°04'1115.0
2014-Jul-22 23:33N 46°60' W 003°16'1515.0
2014-Jul-22 22:33N 47°10' W 003°33'6114.5
2014-Jul-22 18:21N 47°48' W 004°43'1214.7
2014-Jul-22 17:33N 47°55' W 004°57'1313.2
2014-Jul-22 16:34N 48°05' W 005°10'1515.0
2014-Jul-22 15:34N 48°14' W 004°53'1514.6
2014-Jul-22 14:33N 48°21' W 004°33'5 4.4
2014-Jul-22 13:31N 48°23' W 004°27'0 0.0
2014-Jul-22 12:31N 48°23' W 004°27'0 0.0
2014-Jul-22 11:31N 48°23' W 004°27'0 0.0
2014-Jul-22 10:31N 48°23' W 004°27'0 0.0
2014-Jul-22 09:31N 48°23' W 004°27'0 0.0
2014-Jul-22 08:31N 48°23' W 004°27'0 0.0
2014-Jul-22 07:31N 48°23' W 004°27'0 0.0
2014-Jul-22 06:31N 48°23' W 004°27'0 0.0
2014-Jul-22 05:31N 48°23' W 004°27'0 0.0
2014-Jul-22 04:31N 48°23' W 004°27'0 0.3
2014-Jul-22 03:33N 48°23' W 004°27'1010.3
2014-Jul-22 02:33N 48°18' W 004°41'1010.3
2014-Jul-22 01:33N 48°15' W 004°56'1110.9
2014-Jul-22 00:33N 48°18' W 005°12'1111.1
2014-Jul-21 23:33N 48°22' W 005°27'1110.9
2014-Jul-21 22:33N 48°26' W 005°42'1111.4
2014-Jul-21 21:33N 48°33' W 005°56'2010.0
2014-Jul-21 19:33N 48°52' W 005°48'23011.4
2014-Jul-20 23:18N 50°26' W 000°23'1512.6
2014-Jul-20 22:07N 50°30' W 000°00'1112.8
2014-Jul-20 21:15N 50°33' E 000°16'912.7
2014-Jul-20 20:33N 50°35' E 000°30'1211.8
2014-Jul-20 19:33N 50°42' E 000°45'1111.1
2014-Jul-20 18:33N 50°49' E 000°59'1110.7
2014-Jul-20 17:32N 50°56' E 001°12'1110.8
2014-Jul-20 16:33N 51°03' E 001°25'1212.1
2014-Jul-20 15:33N 51°10' E 001°40'1312.9
2014-Jul-20 14:33N 51°20' E 001°53'1010.3
2014-Jul-20 13:33N 51°22' E 002°09'1311.9
2014-Jul-20 12:29N 51°23' E 002°30'1111.5
2014-Jul-20 11:33N 51°22' E 002°47'1413.8
2014-Jul-20 10:33N 51°24' E 003°09'1514.8
2014-Jul-20 09:33N 51°26' E 003°32'1211.8
2014-Jul-20 08:34N 51°21' E 003°50'8 8.2
2014-Jul-20 07:34N 51°23' E 004°02'10 9.5
2014-Jul-20 06:34N 51°21' E 004°17'0 0.1
2014-Jul-20 05:34N 51°21' E 004°17'3 3.4
2014-Jul-20 04:33N 51°18' E 004°20'2 1.7
2014-Jul-20 03:32N 51°16' E 004°21'0 0.0
2014-Jul-20 02:26N 51°16' E 004°21'0 0.0
2014-Jul-20 01:29N 51°16' E 004°21'0 0.0
2014-Jul-20 00:29N 51°16' E 004°21'0 0.0
2014-Jul-19 23:32N 51°16' E 004°21'0 0.0
2014-Jul-19 22:32N 51°16' E 004°21'0 0.0
2014-Jul-19 21:32N 51°16' E 004°21'0 0.0
2014-Jul-19 20:32N 51°16' E 004°21'0 0.0
2014-Jul-19 19:26N 51°16' E 004°21'0 0.0
2014-Jul-19 18:32N 51°16' E 004°21'0 0.0
2014-Jul-19 17:32N 51°16' E 004°21'0 0.0
2014-Jul-19 16:32N 51°16' E 004°21'0 0.0
2014-Jul-19 15:32N 51°16' E 004°21'0 0.0
2014-Jul-19 14:32N 51°16' E 004°21'0 0.0
2014-Jul-19 13:32N 51°16' E 004°21'0 0.0
2014-Jul-19 12:32N 51°16' E 004°21'0 0.0
2014-Jul-19 11:32N 51°16' E 004°21'0 0.0
2014-Jul-19 10:32N 51°16' E 004°21'0 0.0
2014-Jul-19 09:32N 51°16' E 004°21'0 0.0
2014-Jul-19 08:32N 51°16' E 004°21'0 0.0
2014-Jul-19 07:32N 51°16' E 004°21'0 0.0
2014-Jul-19 06:32N 51°16' E 004°21'0 0.0
2014-Jul-19 05:32N 51°16' E 004°21'0 0.0
2014-Jul-19 04:32N 51°16' E 004°21'0 0.0
2014-Jul-19 03:32N 51°16' E 004°21'0 0.0
2014-Jul-19 02:32N 51°16' E 004°21'0 0.0
2014-Jul-19 01:32N 51°16' E 004°21'0 0.0
2014-Jul-19 00:32N 51°16' E 004°21'0 0.0
2014-Jul-18 23:32N 51°16' E 004°21'0 0.0
2014-Jul-18 22:29N 51°16' E 004°21'0 0.0
2014-Jul-18 21:32N 51°16' E 004°21'0 0.0
2014-Jul-18 20:32N 51°16' E 004°21'0 0.0
2014-Jul-18 19:32N 51°16' E 004°21'2 2.5
2014-Jul-18 18:33N 51°18' E 004°19'3 2.6
2014-Jul-18 17:34N 51°21' E 004°17'1 0.8
2014-Jul-18 16:34N 51°21' E 004°16'5 5.0
2014-Jul-18 15:33N 51°22' E 004°08'7 7.1
2014-Jul-18 14:33N 51°24' E 003°57'1010.1
2014-Jul-18 13:33N 51°24' E 003°41'10 9.8
2014-Jul-18 12:33N 51°30' E 003°28'9 9.0
2014-Jul-18 11:33N 51°37' E 003°20'10 9.6
2014-Jul-18 10:33N 51°47' E 003°20'1 1.4
2014-Jul-18 09:33N 51°48' E 003°21'0 0.1
2014-Jul-18 08:33N 51°48' E 003°22'0 0.0
2014-Jul-18 07:30N 51°48' E 003°22'0 0.0
2014-Jul-18 06:27N 51°48' E 003°22'0 0.0
2014-Jul-18 05:30N 51°48' E 003°22'0 0.0
2014-Jul-18 04:33N 51°48' E 003°22'0 0.1
2014-Jul-18 03:33N 51°48' E 003°21'0 0.0
2014-Jul-18 02:33N 51°48' E 003°21'0 0.0
2014-Jul-18 01:33N 51°48' E 003°21'0 0.0
2014-Jul-18 00:33N 51°48' E 003°21'0 0.0
2014-Jul-17 23:33N 51°48' E 003°21'0 0.0
2014-Jul-17 22:03N 51°48' E 003°21'0 0.0
2014-Jul-17 21:33N 51°48' E 003°21'0 0.1
2014-Jul-17 20:33N 51°48' E 003°22'0 0.0
2014-Jul-17 19:33N 51°48' E 003°22'0 0.0
2014-Jul-17 18:33N 51°48' E 003°22'0 0.0
2014-Jul-17 17:33N 51°48' E 003°22'0 0.0
2014-Jul-17 16:33N 51°48' E 003°22'1 0.9
2014-Jul-17 15:33N 51°49' E 003°21'1313.5
2014-Jul-17 14:34N 52°02' E 003°24'1211.7
2014-Jul-17 13:33N 52°04' E 003°43'1414.1
2014-Jul-17 12:34N 51°59' E 004°05'10 9.1
2014-Jul-17 11:27N 51°53' E 004°18'0 0.0
2014-Jul-17 10:30N 51°53' E 004°18'0 0.0
2014-Jul-17 09:24N 51°53' E 004°18'0 0.0
2014-Jul-17 08:33N 51°53' E 004°18'0 0.0
2014-Jul-17 07:27N 51°53' E 004°18'0 0.0
2014-Jul-17 06:33N 51°53' E 004°18'0 0.0
2014-Jul-17 05:33N 51°53' E 004°18'0 0.0
2014-Jul-17 04:27N 51°53' E 004°18'0 0.0
2014-Jul-17 03:30N 51°53' E 004°18'0 0.0
2014-Jul-17 02:30N 51°53' E 004°18'0 0.0
2014-Jul-17 01:33N 51°53' E 004°18'0 0.0
2014-Jul-17 00:33N 51°53' E 004°18'0 0.0
2014-Jul-16 23:30N 51°53' E 004°18'0 0.0
2014-Jul-16 22:18N 51°53' E 004°18'0 0.0
2014-Jul-16 21:30N 51°53' E 004°18'0 0.0
2014-Jul-16 20:33N 51°53' E 004°18'0 0.0
2014-Jul-16 19:27N 51°53' E 004°18'0 0.0
2014-Jul-16 18:21N 51°53' E 004°18'0 0.0
2014-Jul-16 17:27N 51°53' E 004°18'0 0.0
2014-Jul-16 16:33N 51°53' E 004°18'0 0.0
2014-Jul-16 15:27N 51°53' E 004°18'0 0.0
2014-Jul-16 14:33N 51°53' E 004°18'0 0.0
2014-Jul-16 13:33N 51°53' E 004°18'0 0.0
2014-Jul-16 12:27N 51°53' E 004°18'0 0.0
2014-Jul-16 11:27N 51°53' E 004°18'0 0.0
2014-Jul-16 10:30N 51°53' E 004°18'0 0.0
2014-Jul-16 09:33N 51°53' E 004°18'0 0.0
2014-Jul-16 08:15N 51°53' E 004°18'0 0.0
2014-Jul-16 07:33N 51°53' E 004°18'0 0.0
2014-Jul-16 06:21N 51°53' E 004°18'0 0.0
2014-Jul-16 05:30N 51°53' E 004°18'0 0.0
2014-Jul-16 04:33N 51°53' E 004°18'0 0.0
2014-Jul-16 03:33N 51°53' E 004°18'0 0.0
2014-Jul-16 02:33N 51°53' E 004°18'0 0.0
2014-Jul-16 01:33N 51°53' E 004°18'0 0.0
2014-Jul-16 00:30N 51°53' E 004°18'0 0.0
2014-Jul-15 23:21N 51°53' E 004°18'0 0.0
2014-Jul-15 22:24N 51°53' E 004°18'0 0.0
2014-Jul-15 21:24N 51°53' E 004°18'0 0.0
2014-Jul-15 20:33N 51°53' E 004°18'0 0.0
2014-Jul-15 19:33N 51°53' E 004°18'0 0.0
2014-Jul-15 18:27N 51°53' E 004°18'0 0.0
2014-Jul-15 17:33N 51°53' E 004°18'0 0.0
2014-Jul-15 16:33N 51°53' E 004°18'0 0.0
2014-Jul-15 15:33N 51°53' E 004°18'0 0.0
2014-Jul-15 14:33N 51°53' E 004°18'0 0.0
2014-Jul-15 13:33N 51°53' E 004°18'0 0.1
2014-Jul-15 12:33N 51°53' E 004°18'1 0.5
2014-Jul-15 11:31N 51°54' E 004°17'0 0.0
2014-Jul-15 10:31N 51°54' E 004°17'0 0.0
2014-Jul-15 09:07N 51°54' E 004°17'0 0.0
2014-Jul-15 08:25N 51°54' E 004°17'0 0.0
2014-Jul-15 07:28N 51°54' E 004°17'0 0.0
2014-Jul-15 06:07N 51°54' E 004°17'0 0.0
2014-Jul-15 05:19N 51°54' E 004°17'0 0.0
2014-Jul-15 04:31N 51°54' E 004°17'0 0.0
2014-Jul-15 03:28N 51°54' E 004°17'0 0.0
2014-Jul-15 02:28N 51°54' E 004°17'0 0.0
2014-Jul-15 01:28N 51°54' E 004°17'0 0.0
2014-Jul-15 00:22N 51°54' E 004°17'1 0.8
2014-Jul-14 23:33N 51°54' E 004°18'1211.6
2014-Jul-14 22:33N 51°60' E 004°02'1312.5
2014-Jul-14 21:33N 52°04' E 003°43'4 4.1
2014-Jul-14 20:31N 52°08' E 003°40'0 0.0
2014-Jul-14 18:31N 52°08' E 003°40'0 0.0
2014-Jul-14 16:26N 52°08' E 003°40'7212.2
2014-Jul-14 10:33N 52°46' E 002°00'1716.8
2014-Jul-14 09:34N 52°54' E 001°36'1717.0
2014-Jul-14 08:33N 53°09' E 001°21'5016.8
2014-Jul-14 05:33N 53°52' E 000°37'1717.4
2014-Jul-14 04:34N 54°06' E 000°21'1717.0
2014-Jul-14 03:34N 54°20' E 000°05'1616.2
2014-Jul-14 02:33N 54°33' W 000°13'1615.7
2014-Jul-14 01:33N 54°38' W 000°39'1514.8
2014-Jul-14 00:33N 54°40' W 001°04'5 0.5
2014-Jul-13 15:28N 54°37' W 001°09'0 0.0
2014-Jul-13 14:22N 54°37' W 001°09'0 0.0
2014-Jul-13 13:28N 54°37' W 001°09'0 0.0
2014-Jul-13 12:25N 54°37' W 001°09'0 0.0
2014-Jul-13 11:16N 54°37' W 001°09'0 0.1
2014-Jul-13 09:34N 54°37' W 001°09'4 3.1
2014-Jul-13 08:16N 54°40' W 001°05'0 0.0
2014-Jul-13 07:25N 54°40' W 001°05'0 0.0
2014-Jul-13 06:28N 54°40' W 001°05'  
Track history (hours):
 
Tides and Currents Weather Stations Pressure Air Temp Water Temp Dewpoint Dewpoint Depression Visibility Wind Speed Wind Dir Waves Ship Positions

Capewater

Last reported at 2014-Jul-23 06:08 UTC. Time now 2014-Jul-23 07:27 UTC.
Position N 46°07' W 001°25'.

Length 100 m; draft 6.6 m.

Type: Tanker. MMSI: 246346000.

Date/timePositionNaut miles runAvg speedWind from/ knotsBaromVisibWave heightAir tempDewpointWater temp
2014-Jul-23 06:08N 46°07' W 001°25'813.2
2014-Jul-23 05:33N 46°07' W 001°36'1413.8
2014-Jul-23 04:34N 46°14' W 001°53'1414.5
2014-Jul-23 03:34N 46°23' W 002°09'1514.6
2014-Jul-23 02:34N 46°32' W 002°26'3314.7
2014-Jul-23 00:17N 46°53' W 003°04'1115.0
2014-Jul-22 23:33N 46°60' W 003°16'1515.0
2014-Jul-22 22:33N 47°10' W 003°33'6114.5
2014-Jul-22 18:21N 47°48' W 004°43'1214.7
2014-Jul-22 17:33N 47°55' W 004°57'1313.2
2014-Jul-22 16:34N 48°05' W 005°10'1515.0
2014-Jul-22 15:34N 48°14' W 004°53'1514.6
2014-Jul-22 14:33N 48°21' W 004°33'5 4.4
2014-Jul-22 13:31N 48°23' W 004°27'0 0.0
2014-Jul-22 12:31N 48°23' W 004°27'0 0.0
2014-Jul-22 11:31N 48°23' W 004°27'0 0.0
2014-Jul-22 10:31N 48°23' W 004°27'0 0.0
2014-Jul-22 09:31N 48°23' W 004°27'0 0.0
2014-Jul-22 08:31N 48°23' W 004°27'0 0.0
2014-Jul-22 07:31N 48°23' W 004°27'0 0.0
2014-Jul-22 06:31N 48°23' W 004°27'0 0.0
2014-Jul-22 05:31N 48°23' W 004°27'0 0.0
2014-Jul-22 04:31N 48°23' W 004°27'0 0.3
2014-Jul-22 03:33N 48°23' W 004°27'1010.3
2014-Jul-22 02:33N 48°18' W 004°41'1010.3
2014-Jul-22 01:33N 48°15' W 004°56'1110.9
2014-Jul-22 00:33N 48°18' W 005°12'1111.1
2014-Jul-21 23:33N 48°22' W 005°27'1110.9
2014-Jul-21 22:33N 48°26' W 005°42'1111.4
2014-Jul-21 21:33N 48°33' W 005°56'2010.0
2014-Jul-21 19:33N 48°52' W 005°48'23011.4
2014-Jul-20 23:18N 50°26' W 000°23'1512.6
2014-Jul-20 22:07N 50°30' W 000°00'1112.8
2014-Jul-20 21:15N 50°33' E 000°16'912.7
2014-Jul-20 20:33N 50°35' E 000°30'1211.8
2014-Jul-20 19:33N 50°42' E 000°45'1111.1
2014-Jul-20 18:33N 50°49' E 000°59'1110.7
2014-Jul-20 17:32N 50°56' E 001°12'1110.8
2014-Jul-20 16:33N 51°03' E 001°25'1212.1
2014-Jul-20 15:33N 51°10' E 001°40'1312.9
2014-Jul-20 14:33N 51°20' E 001°53'1010.3
2014-Jul-20 13:33N 51°22' E 002°09'1311.9
2014-Jul-20 12:29N 51°23' E 002°30'1111.5
2014-Jul-20 11:33N 51°22' E 002°47'1413.8
2014-Jul-20 10:33N 51°24' E 003°09'1514.8
2014-Jul-20 09:33N 51°26' E 003°32'1211.8
2014-Jul-20 08:34N 51°21' E 003°50'8 8.2
2014-Jul-20 07:34N 51°23' E 004°02'10 9.5
2014-Jul-20 06:34N 51°21' E 004°17'0 0.1
2014-Jul-20 05:34N 51°21' E 004°17'3 3.4
2014-Jul-20 04:33N 51°18' E 004°20'2 1.7
2014-Jul-20 03:32N 51°16' E 004°21'0 0.0
2014-Jul-20 02:26N 51°16' E 004°21'0 0.0
2014-Jul-20 01:29N 51°16' E 004°21'0 0.0
2014-Jul-20 00:29N 51°16' E 004°21'0 0.0
2014-Jul-19 23:32N 51°16' E 004°21'0 0.0
2014-Jul-19 22:32N 51°16' E 004°21'0 0.0
2014-Jul-19 21:32N 51°16' E 004°21'0 0.0
2014-Jul-19 20:32N 51°16' E 004°21'0 0.0
2014-Jul-19 19:26N 51°16' E 004°21'0 0.0
2014-Jul-19 18:32N 51°16' E 004°21'0 0.0
2014-Jul-19 17:32N 51°16' E 004°21'0 0.0
2014-Jul-19 16:32N 51°16' E 004°21'0 0.0
2014-Jul-19 15:32N 51°16' E 004°21'0 0.0
2014-Jul-19 14:32N 51°16' E 004°21'0 0.0
2014-Jul-19 13:32N 51°16' E 004°21'0 0.0
2014-Jul-19 12:32N 51°16' E 004°21'0 0.0
2014-Jul-19 11:32N 51°16' E 004°21'0 0.0
2014-Jul-19 10:32N 51°16' E 004°21'0 0.0
2014-Jul-19 09:32N 51°16' E 004°21'0 0.0
2014-Jul-19 08:32N 51°16' E 004°21'0 0.0
2014-Jul-19 07:32N 51°16' E 004°21'0 0.0
2014-Jul-19 06:32N 51°16' E 004°21'0 0.0
2014-Jul-19 05:32N 51°16' E 004°21'0 0.0
2014-Jul-19 04:32N 51°16' E 004°21'0 0.0
2014-Jul-19 03:32N 51°16' E 004°21'0 0.0
2014-Jul-19 02:32N 51°16' E 004°21'0 0.0
2014-Jul-19 01:32N 51°16' E 004°21'0 0.0
2014-Jul-19 00:32N 51°16' E 004°21'0 0.0
2014-Jul-18 23:32N 51°16' E 004°21'0 0.0
2014-Jul-18 22:29N 51°16' E 004°21'0 0.0
2014-Jul-18 21:32N 51°16' E 004°21'0 0.0
2014-Jul-18 20:32N 51°16' E 004°21'0 0.0
2014-Jul-18 19:32N 51°16' E 004°21'2 2.5
2014-Jul-18 18:33N 51°18' E 004°19'3 2.6
2014-Jul-18 17:34N 51°21' E 004°17'1 0.8
2014-Jul-18 16:34N 51°21' E 004°16'5 5.0
2014-Jul-18 15:33N 51°22' E 004°08'7 7.1
2014-Jul-18 14:33N 51°24' E 003°57'1010.1
2014-Jul-18 13:33N 51°24' E 003°41'10 9.8
2014-Jul-18 12:33N 51°30' E 003°28'9 9.0
2014-Jul-18 11:33N 51°37' E 003°20'10 9.6
2014-Jul-18 10:33N 51°47' E 003°20'1 1.4
2014-Jul-18 09:33N 51°48' E 003°21'0 0.1
2014-Jul-18 08:33N 51°48' E 003°22'0 0.0
2014-Jul-18 07:30N 51°48' E 003°22'0 0.0
2014-Jul-18 06:27N 51°48' E 003°22'0 0.0
2014-Jul-18 05:30N 51°48' E 003°22'0 0.0
2014-Jul-18 04:33N 51°48' E 003°22'0 0.1
2014-Jul-18 03:33N 51°48' E 003°21'0 0.0
2014-Jul-18 02:33N 51°48' E 003°21'0 0.0
2014-Jul-18 01:33N 51°48' E 003°21'0 0.0
2014-Jul-18 00:33N 51°48' E 003°21'0 0.0
2014-Jul-17 23:33N 51°48' E 003°21'0 0.0
2014-Jul-17 22:03N 51°48' E 003°21'0 0.0
2014-Jul-17 21:33N 51°48' E 003°21'0 0.1
2014-Jul-17 20:33N 51°48' E 003°22'0 0.0
2014-Jul-17 19:33N 51°48' E 003°22'0 0.0
2014-Jul-17 18:33N 51°48' E 003°22'0 0.0
2014-Jul-17 17:33N 51°48' E 003°22'0 0.0
2014-Jul-17 16:33N 51°48' E 003°22'1 0.9
2014-Jul-17 15:33N 51°49' E 003°21'1313.5
2014-Jul-17 14:34N 52°02' E 003°24'1211.7
2014-Jul-17 13:33N 52°04' E 003°43'1414.1
2014-Jul-17 12:34N 51°59' E 004°05'10 9.1
2014-Jul-17 11:27N 51°53' E 004°18'0 0.0
2014-Jul-17 10:30N 51°53' E 004°18'0 0.0
2014-Jul-17 09:24N 51°53' E 004°18'0 0.0
2014-Jul-17 08:33N 51°53' E 004°18'0 0.0
2014-Jul-17 07:27N 51°53' E 004°18'0 0.0
2014-Jul-17 06:33N 51°53' E 004°18'0 0.0
2014-Jul-17 05:33N 51°53' E 004°18'0 0.0
2014-Jul-17 04:27N 51°53' E 004°18'0 0.0
2014-Jul-17 03:30N 51°53' E 004°18'0 0.0
2014-Jul-17 02:30N 51°53' E 004°18'0 0.0
2014-Jul-17 01:33N 51°53' E 004°18'0 0.0
2014-Jul-17 00:33N 51°53' E 004°18'0 0.0
2014-Jul-16 23:30N 51°53' E 004°18'0 0.0
2014-Jul-16 22:18N 51°53' E 004°18'0 0.0
2014-Jul-16 21:30N 51°53' E 004°18'0 0.0
2014-Jul-16 20:33N 51°53' E 004°18'0 0.0
2014-Jul-16 19:27N 51°53' E 004°18'0 0.0
2014-Jul-16 18:21N 51°53' E 004°18'0 0.0
2014-Jul-16 17:27N 51°53' E 004°18'0 0.0
2014-Jul-16 16:33N 51°53' E 004°18'0 0.0
2014-Jul-16 15:27N 51°53' E 004°18'0 0.0
2014-Jul-16 14:33N 51°53' E 004°18'0 0.0
2014-Jul-16 13:33N 51°53' E 004°18'0 0.0
2014-Jul-16 12:27N 51°53' E 004°18'0 0.0
2014-Jul-16 11:27N 51°53' E 004°18'0 0.0
2014-Jul-16 10:30N 51°53' E 004°18'0 0.0
2014-Jul-16 09:33N 51°53' E 004°18'0 0.0
2014-Jul-16 08:15N 51°53' E 004°18'0 0.0
2014-Jul-16 07:33N 51°53' E 004°18'0 0.0
2014-Jul-16 06:21N 51°53' E 004°18'0 0.0
2014-Jul-16 05:30N 51°53' E 004°18'0 0.0
2014-Jul-16 04:33N 51°53' E 004°18'0 0.0
2014-Jul-16 03:33N 51°53' E 004°18'0 0.0
2014-Jul-16 02:33N 51°53' E 004°18'0 0.0
2014-Jul-16 01:33N 51°53' E 004°18'0 0.0
2014-Jul-16 00:30N 51°53' E 004°18'0 0.0
2014-Jul-15 23:21N 51°53' E 004°18'0 0.0
2014-Jul-15 22:24N 51°53' E 004°18'0 0.0
2014-Jul-15 21:24N 51°53' E 004°18'0 0.0
2014-Jul-15 20:33N 51°53' E 004°18'0 0.0
2014-Jul-15 19:33N 51°53' E 004°18'0 0.0
2014-Jul-15 18:27N 51°53' E 004°18'0 0.0
2014-Jul-15 17:33N 51°53' E 004°18'0 0.0
2014-Jul-15 16:33N 51°53' E 004°18'0 0.0
2014-Jul-15 15:33N 51°53' E 004°18'0 0.0
2014-Jul-15 14:33N 51°53' E 004°18'0 0.0
2014-Jul-15 13:33N 51°53' E 004°18'0 0.1
2014-Jul-15 12:33N 51°53' E 004°18'1 0.5
2014-Jul-15 11:31N 51°54' E 004°17'0 0.0
2014-Jul-15 10:31N 51°54' E 004°17'0 0.0
2014-Jul-15 09:07N 51°54' E 004°17'0 0.0
2014-Jul-15 08:25N 51°54' E 004°17'0 0.0
2014-Jul-15 07:28N 51°54' E 004°17'0 0.0
2014-Jul-15 06:07N 51°54' E 004°17'0 0.0
2014-Jul-15 05:19N 51°54' E 004°17'0 0.0
2014-Jul-15 04:31N 51°54' E 004°17'0 0.0
2014-Jul-15 03:28N 51°54' E 004°17'0 0.0
2014-Jul-15 02:28N 51°54' E 004°17'0 0.0
2014-Jul-15 01:28N 51°54' E 004°17'0 0.0
2014-Jul-15 00:22N 51°54' E 004°17'1 0.8
2014-Jul-14 23:33N 51°54' E 004°18'1211.6
2014-Jul-14 22:33N 51°60' E 004°02'1312.5
2014-Jul-14 21:33N 52°04' E 003°43'4 4.1
2014-Jul-14 20:31N 52°08' E 003°40'0 0.0
2014-Jul-14 18:31N 52°08' E 003°40'0 0.0
2014-Jul-14 16:26N 52°08' E 003°40'7212.2
2014-Jul-14 10:33N 52°46' E 002°00'1716.8
2014-Jul-14 09:34N 52°54' E 001°36'1717.0
2014-Jul-14 08:33N 53°09' E 001°21'5016.8
2014-Jul-14 05:33N 53°52' E 000°37'1717.4
2014-Jul-14 04:34N 54°06' E 000°21'1717.0
2014-Jul-14 03:34N 54°20' E 000°05'1616.2
2014-Jul-14 02:33N 54°33' W 000°13'1615.7
2014-Jul-14 01:33N 54°38' W 000°39'1514.8
2014-Jul-14 00:33N 54°40' W 001°04'5 0.5
2014-Jul-13 15:28N 54°37' W 001°09'0 0.0
2014-Jul-13 14:22N 54°37' W 001°09'0 0.0
2014-Jul-13 13:28N 54°37' W 001°09'0 0.0
2014-Jul-13 12:25N 54°37' W 001°09'0 0.0
2014-Jul-13 11:16N 54°37' W 001°09'0 0.1
2014-Jul-13 09:34N 54°37' W 001°09'4 3.1
2014-Jul-13 08:16N 54°40' W 001°05'0 0.0
2014-Jul-13 07:25N 54°40' W 001°05'0 0.0
2014-Jul-13 06:28N 54°40' W 001°05'  

Dump ship's entire track history